Time;durP1;ratioP1;P1;durP2;ratioP2;P2;SDS_P1;SDS_P2;PMS_P1;PMS_P2;Temp;Humidity;BMP_temperature;BMP_pressure;BME280_temperature;BME280_humidity;BME280_pressure;Samples;Min_cycle;Max_cycle;Signal;HPM_P1;HPM_P2
2023/11/27 00:02:20;;;;;;;3.07;2.60;;;;;;;3.70;82.13;95116.94;5069371;28;20200;-89
2023/11/27 00:04:55;;;;;;;3.20;2.60;;;;;;;3.72;82.42;95118.41;5070768;28;20319;-89
2023/11/27 00:07:22;;;;;;;3.30;2.50;;;;;;;3.75;82.13;95118.13;5071000;28;20337;-89
2023/11/27 00:09:54;;;;;;;2.70;2.50;;;;;;;3.79;81.99;95104.16;5071607;28;20212;-88
2023/11/27 00:12:39;;;;;;;2.57;2.27;;;;;;;3.76;81.58;95106.19;5071239;28;20222;-88
2023/11/27 00:15:14;;;;;;;3.33;2.63;;;;;;;3.72;81.23;95087.88;5064217;28;20196;-89
2023/11/27 00:17:45;;;;;;;2.70;2.50;;;;;;;3.73;81.42;95088.66;5069124;28;20216;-89
2023/11/27 00:20:12;;;;;;;3.30;2.60;;;;;;;3.71;80.85;95075.28;5070956;28;20316;-88
2023/11/27 00:22:38;;;;;;;2.40;2.20;;;;;;;3.71;80.73;95073.53;5070724;28;20243;-89
2023/11/27 00:25:12;;;;;;;2.73;2.30;;;;;;;3.69;80.91;95075.41;5070751;28;20216;-89
2023/11/27 00:27:41;;;;;;;3.47;2.40;;;;;;;3.64;80.81;95072.53;5070510;28;20286;-88
2023/11/27 00:30:23;;;;;;;2.77;2.30;;;;;;;3.67;80.63;95061.25;5071193;28;20200;-89
2023/11/27 00:32:58;;;;;;;4.00;2.53;;;;;;;3.70;80.38;95064.28;5071024;28;20235;-88
2023/11/27 00:35:38;;;;;;;3.17;2.60;;;;;;;3.79;80.25;95053.25;5069349;28;20196;-89
2023/11/27 00:38:06;;;;;;;3.20;2.47;;;;;;;3.79;80.25;95047.34;5070579;28;20223;-88
2023/11/27 00:40:47;;;;;;;2.50;2.30;;;;;;;3.82;80.29;95044.50;5070964;28;20574;-88
2023/11/27 00:43:37;;;;;;;;;;;;;;;;;;;;;
2023/11/27 00:46:21;;;;;;;2.30;2.10;;;;;;;3.71;79.97;95032.81;5069662;28;20205;-89
2023/11/27 00:48:53;;;;;;;2.40;2.20;;;;;;;3.73;80.32;95047.94;5068994;28;20223;-89
2023/11/27 00:51:25;;;;;;;2.43;2.13;;;;;;;3.74;80.11;95049.53;5068494;28;20212;-88
2023/11/27 00:53:51;;;;;;;2.33;2.13;;;;;;;3.75;80.06;95044.28;5070514;28;20316;-89
2023/11/27 00:56:35;;;;;;;2.83;2.40;;;;;;;3.79;80.17;95040.50;5070501;28;20786;-89
2023/11/27 00:59:07;;;;;;;2.10;1.90;;;;;;;3.82;80.22;95039.41;5070618;28;20221;-89
2023/11/27 01:01:36;;;;;;;3.53;2.23;;;;;;;3.81;79.84;95032.72;5069824;28;20193;-89
2023/11/27 01:04:05;;;;;;;2.73;2.20;;;;;;;3.76;79.84;95024.72;5069956;28;20236;-88
2023/11/27 01:06:36;;;;;;;2.70;1.97;;;;;;;3.77;80.05;95029.69;5068558;28;20248;-89
2023/11/27 01:09:25;;;;;;;;;;;;;;;;;;;;;
2023/11/27 01:12:02;;;;;;;2.30;2.10;;;;;;;3.80;80.12;95031.94;5070252;28;20193;-88
2023/11/27 01:14:39;;;;;;;2.30;2.10;;;;;;;3.78;80.02;95028.72;5066197;28;20614;-88
2023/11/27 01:17:13;;;;;;;2.57;2.10;;;;;;;3.78;80.36;95031.28;5066245;28;20553;-89
2023/11/27 01:19:47;;;;;;;2.53;2.03;;;;;;;3.79;80.41;95035.41;5070019;28;20633;-89
2023/11/27 01:22:26;;;;;;;2.93;2.03;;;;;;;3.82;80.11;95024.16;5067759;28;20197;-88
2023/11/27 01:24:57;;;;;;;2.17;1.90;;;;;;;3.73;80.08;95028.38;5069600;28;20232;-88
2023/11/27 01:27:29;;;;;;;2.40;2.20;;;;;;;3.77;80.40;95023.78;5069399;28;20294;-88
2023/11/27 01:30:03;;;;;;;3.50;2.43;;;;;;;3.80;80.23;95020.94;5069696;28;20218;-88
2023/11/27 01:32:42;;;;;;;2.40;2.10;;;;;;;3.73;80.11;95002.91;5069117;28;20250;-89
2023/11/27 01:35:17;;;;;;;3.37;2.07;;;;;;;3.70;80.31;94999.84;5050108;28;20197;-88
2023/11/27 01:37:46;;;;;;;3.43;2.00;;;;;;;3.70;80.30;95010.03;5057374;28;20212;-88
2023/11/27 01:40:18;;;;;;;2.20;2.00;;;;;;;3.69;80.43;95001.59;5062936;28;20204;-89
2023/11/27 01:42:56;;;;;;;2.63;1.93;;;;;;;3.67;80.31;95010.34;5069764;28;20228;-89
2023/11/27 01:45:34;;;;;;;3.17;2.10;;;;;;;3.60;80.35;95006.81;5069769;28;20208;-89
2023/11/27 01:48:17;;;;;;;2.50;2.30;;;;;;;3.58;81.04;95019.66;5069881;28;20235;-88
2023/11/27 01:50:52;;;;;;;2.83;2.17;;;;;;;3.64;80.85;95023.38;5068683;28;20567;-88
2023/11/27 01:53:24;;;;;;;2.53;2.10;;;;;;;3.67;80.75;95011.13;5069452;28;20678;-89
2023/11/27 01:56:02;;;;;;;2.33;2.00;;;;;;;3.72;80.55;95010.69;5067754;28;20201;-88
2023/11/27 01:58:32;;;;;;;2.53;2.00;;;;;;;3.72;80.43;94995.41;5069606;28;20229;-89
2023/11/27 02:01:05;;;;;;;3.33;2.30;;;;;;;3.60;79.89;94984.69;5069388;28;20200;-89
2023/11/27 02:03:44;;;;;;;2.47;2.13;;;;;;;3.61;80.02;94978.66;5069347;28;20224;-89
2023/11/27 02:06:18;;;;;;;3.23;2.33;;;;;;;3.62;80.08;94992.19;5068933;28;20622;-88
2023/11/27 02:08:48;;;;;;;2.60;2.07;;;;;;;3.63;79.88;94976.75;5072288;23;20283;-88
2023/11/27 02:11:28;;;;;;;3.13;2.20;;;;;;;3.61;79.76;94981.19;5066044;28;20197;-89
2023/11/27 02:13:55;;;;;;;2.73;2.10;;;;;;;3.60;79.83;94973.72;5068543;28;20671;-88
2023/11/27 02:16:26;;;;;;;2.50;1.87;;;;;;;3.60;79.79;94961.78;5068949;28;20266;-88
2023/11/27 02:18:58;;;;;;;2.17;1.93;;;;;;;3.64;79.49;94959.75;5062819;28;20209;-88
2023/11/27 02:21:31;;;;;;;2.30;1.93;;;;;;;3.63;79.45;94951.31;5049442;28;20284;-88
2023/11/27 02:24:01;;;;;;;1.83;1.73;;;;;;;3.56;78.84;94924.84;5057427;28;20225;-89
2023/11/27 02:26:32;;;;;;;3.27;1.80;;;;;;;3.60;79.03;94933.78;5052851;28;20567;-89
2023/11/27 02:29:15;;;;;;;2.00;1.80;;;;;;;3.66;78.72;94935.72;5068956;28;20259;-88
2023/11/27 02:31:48;;;;;;;2.63;1.80;;;;;;;3.67;78.65;94926.34;5064190;28;20217;-88
2023/11/27 02:34:26;;;;;;;2.20;2.00;;;;;;;3.69;78.60;94924.44;5067522;28;20207;-87
2023/11/27 02:36:58;;;;;;;2.67;1.80;;;;;;;3.72;78.73;94921.59;5069638;28;20201;-88
2023/11/27 02:39:40;;;;;;;;;;;;;;;;;;;;;
2023/11/27 02:42:27;;;;;;;1.60;1.50;;;;;;;3.74;78.30;94909.53;5055112;28;20668;-88
2023/11/27 02:45:08;;;;;;;2.10;1.63;;;;;;;3.76;78.07;94920.34;5066813;28;20823;-88
2023/11/27 02:47:59;;;;;;;;;;;;;;;;;;;;;
2023/11/27 02:50:28;;;;;;;2.83;1.80;;;;;;;3.73;77.83;94906.19;5067738;28;20207;-88
2023/11/27 02:52:59;;;;;;;1.97;1.77;;;;;;;3.74;78.26;94915.41;5068488;28;20200;-88
2023/11/27 02:55:37;;;;;;;1.87;1.63;;;;;;;3.74;78.11;94912.88;5067880;28;20196;-88
2023/11/27 02:58:08;;;;;;;1.60;1.50;;;;;;;3.77;77.83;94899.84;5066342;28;20248;-88
2023/11/27 03:00:55;;;;;;;1.60;1.50;;;;;;;3.73;77.87;94883.25;5066484;28;20201;-88
2023/11/27 03:03:28;;;;;;;1.77;1.50;;;;;;;3.70;77.83;94882.75;5068780;28;20208;-88
2023/11/27 03:05:55;;;;;;;1.97;1.80;;;;;;;3.72;77.93;94904.56;5068459;28;20730;-88
2023/11/27 03:08:27;;;;;;;1.60;1.50;;;;;;;3.75;77.69;94883.91;5064261;28;20286;-88
2023/11/27 03:11:05;;;;;;;2.13;1.40;;;;;;;3.72;77.21;94860.50;5072672;28;20633;-87
2023/11/27 03:13:35;;;;;;;2.03;1.80;;;;;;;3.72;77.22;94847.78;5072367;28;20227;-88
2023/11/27 03:16:01;;;;;;;1.80;1.50;;;;;;;3.75;77.23;94847.47;5071558;28;20208;-88
2023/11/27 03:18:36;;;;;;;1.97;1.57;;;;;;;3.74;76.69;94833.16;5070634;28;20266;-88
2023/11/27 03:21:18;;;;;;;1.73;1.50;;;;;;;3.77;76.37;94826.00;5053776;28;20193;-88
2023/11/27 03:23:48;;;;;;;2.57;1.57;;;;;;;3.78;76.48;94809.78;5053459;28;20198;-88
2023/11/27 03:26:21;;;;;;;2.30;1.70;;;;;;;3.78;76.52;94811.53;5051824;28;20262;-88
2023/11/27 03:28:54;;;;;;;1.77;1.60;;;;;;;3.77;76.49;94820.91;5053309;28;20690;-88
2023/11/27 03:31:37;;;;;;;1.73;1.43;;;;;;;3.74;76.87;94825.50;5058926;28;20204;-88
2023/11/27 03:34:07;;;;;;;2.53;1.50;;;;;;;3.66;77.75;94845.84;5071686;28;20287;-88
2023/11/27 03:36:36;;;;;;;2.90;1.63;;;;;;;3.68;77.80;94846.47;5071624;28;20204;-88
2023/11/27 03:39:03;;;;;;;1.87;1.57;;;;;;;3.66;77.59;94835.66;5071328;28;20605;-88
2023/11/27 03:41:34;;;;;;;2.70;1.60;;;;;;;3.68;77.67;94826.91;5071044;28;20561;-89
2023/11/27 03:44:04;;;;;;;1.40;1.30;;;;;;;3.65;76.77;94808.63;5071700;28;20510;-88
2023/11/27 03:46:31;;;;;;;1.57;1.30;;;;;;;3.68;76.87;94795.56;5070986;28;20208;-88
2023/11/27 03:48:58;;;;;;;1.40;1.10;;;;;;;3.65;76.95;94796.69;5069655;28;20224;-88
2023/11/27 03:51:25;;;;;;;1.60;1.40;;;;;;;3.66;76.34;94777.91;5071397;28;20284;-88
2023/11/27 03:54:00;;;;;;;1.10;1.10;;;;;;;3.66;75.53;94741.47;5071193;28;20228;-88
2023/11/27 03:56:30;;;;;;;1.73;1.20;;;;;;;3.65;75.59;94722.91;5056289;28;20203;-88
2023/11/27 03:59:07;;;;;;;1.53;1.27;;;;;;;3.62;74.93;94700.28;5051457;28;20221;-89
2023/11/27 04:01:45;;;;;;;1.17;1.07;;;;;;;3.60;74.49;94697.09;5039236;28;20709;-88
2023/11/27 04:04:16;;;;;;;1.40;1.30;;;;;;;3.62;74.58;94682.47;5042593;28;20229;-88
2023/11/27 04:07:03;;;;;;;1.33;1.23;;;;;;;3.64;75.16;94711.13;5051665;28;20219;-88
2023/11/27 04:09:33;;;;;;;1.37;1.27;;;;;;;3.59;75.26;94713.31;5031551;28;20695;-88
2023/11/27 04:12:00;;;;;;;1.20;1.10;;;;;;;3.63;75.69;94727.34;5043021;28;20280;-88
2023/11/27 04:14:32;;;;;;;1.33;1.20;;;;;;;3.61;75.96;94726.69;5050556;28;20201;-88
2023/11/27 04:17:09;;;;;;;1.27;1.10;;;;;;;3.57;76.55;94748.31;5051210;28;20225;-88
2023/11/27 04:19:47;;;;;;;1.57;1.00;;;;;;;3.48;77.03;94744.13;5050516;28;20202;-88
2023/11/27 04:22:14;;;;;;;1.20;1.10;;;;;;;3.51;76.94;94751.47;5050207;28;20208;-87
2023/11/27 04:24:56;;;;;;;;;;;;;;;;;;;;;
2023/11/27 04:27:23;;;;;;;1.60;1.00;;;;;;;3.44;76.85;94732.69;5049707;28;20585;-88
2023/11/27 04:29:53;;;;;;;1.90;1.40;;;;;;;3.40;76.62;94716.13;5049454;28;20229;-87
2023/11/27 04:32:30;;;;;;;1.47;1.33;;;;;;;3.35;76.44;94695.44;5030896;28;20197;-89
2023/11/27 04:35:02;;;;;;;1.43;1.03;;;;;;;3.32;75.73;94671.09;5049861;28;20209;-88
2023/11/27 04:37:32;;;;;;;1.87;1.33;;;;;;;3.29;75.57;94668.06;5050013;28;20222;-88
2023/11/27 04:39:58;;;;;;;1.37;1.27;;;;;;;3.32;74.82;94639.78;5050959;28;20201;-87
2023/11/27 04:42:26;;;;;;;1.37;1.27;;;;;;;3.16;73.96;94583.78;5049988;28;20197;-87
2023/11/27 04:44:57;;;;;;;1.40;1.30;;;;;;;3.06;73.53;94549.13;5050449;28;20601;-89
2023/11/27 04:47:30;;;;;;;1.83;1.23;;;;;;;3.00;73.39;94544.66;5050119;28;20271;-88
2023/11/27 04:50:09;;;;;;;;;;;;;;;;;;;;;
2023/11/27 04:52:41;;;;;;;1.47;1.37;;;;;;;2.99;72.97;94517.66;5049355;28;20201;-88
2023/11/27 04:55:10;;;;;;;1.23;1.10;;;;;;;2.96;72.38;94499.38;5038238;28;20194;-87
2023/11/27 04:57:44;;;;;;;1.27;1.10;;;;;;;3.04;72.53;94484.13;5050300;28;20217;-88
2023/11/27 05:00:18;;;;;;;1.30;1.20;;;;;;;3.15;72.02;94472.84;5039084;28;20252;-89
2023/11/27 05:02:48;;;;;;;1.70;1.40;;;;;;;3.24;71.92;94474.47;5030474;28;20183;-88
2023/11/27 05:05:15;;;;;;;3.13;1.30;;;;;;;3.26;71.57;94455.53;5037355;28;20217;-88
2023/11/27 05:07:57;;;;;;;1.50;1.30;;;;;;;3.27;70.98;94451.25;5047740;28;20329;-87
2023/11/27 05:10:23;;;;;;;0.97;0.90;;;;;;;3.24;70.22;94405.78;5042776;28;20196;-86
2023/11/27 05:12:55;;;;;;;2.00;1.10;;;;;;;3.23;69.95;94399.91;5050615;28;20672;-89
2023/11/27 05:15:23;;;;;;;1.23;1.13;;;;;;;3.23;69.89;94382.09;5046073;28;20235;-86
2023/11/27 05:17:51;;;;;;;1.40;1.03;;;;;;;3.29;70.08;94398.44;5043082;28;20819;-87
2023/11/27 05:20:18;;;;;;;2.67;1.40;;;;;;;3.38;69.92;94400.03;5029707;28;20213;-86
2023/11/27 05:22:44;;;;;;;1.50;1.40;;;;;;;3.40;69.71;94390.50;5041048;28;20204;-87
2023/11/27 05:25:10;;;;;;;1.30;1.07;;;;;;;3.44;70.23;94396.84;5048649;28;20236;-87
2023/11/27 05:27:39;;;;;;;1.30;1.20;;;;;;;3.43;70.04;94398.59;5049279;28;20229;-88
2023/11/27 05:30:09;;;;;;;1.43;1.10;;;;;;;3.40;69.88;94378.56;5049803;28;20236;-87
2023/11/27 05:32:37;;;;;;;1.33;1.20;;;;;;;3.40;69.81;94396.38;5050449;28;20266;-87
2023/11/27 05:35:04;;;;;;;2.40;1.33;;;;;;;3.37;70.12;94385.72;5049994;28;20232;-86
2023/11/27 05:37:31;;;;;;;2.13;1.10;;;;;;;3.36;69.70;94377.31;5049825;28;20491;-87
2023/11/27 05:39:57;;;;;;;1.40;1.20;;;;;;;3.35;70.13;94390.97;5048349;28;20677;-87
2023/11/27 05:42:26;;;;;;;1.80;1.33;;;;;;;3.41;70.06;94420.88;5049873;28;20205;-87
2023/11/27 05:44:54;;;;;;;1.33;1.23;;;;;;;3.39;70.30;94425.31;5049693;28;20218;-87
2023/11/27 05:47:23;;;;;;;1.30;1.17;;;;;;;3.44;70.76;94422.31;5048878;28;20206;-87
2023/11/27 05:49:52;;;;;;;1.10;1.10;;;;;;;3.40;70.84;94426.91;5049662;28;20231;-87
2023/11/27 05:52:18;;;;;;;1.20;1.10;;;;;;;3.38;70.66;94426.28;5049692;28;20202;-87
2023/11/27 05:54:45;;;;;;;1.40;1.10;;;;;;;3.37;71.08;94432.31;5047018;28;21014;-87
2023/11/27 05:57:12;;;;;;;1.20;1.10;;;;;;;3.30;71.12;94421.19;5047493;28;20212;-86
2023/11/27 05:59:38;;;;;;;1.27;1.10;;;;;;;3.28;71.31;94435.00;5049289;28;20206;-86
2023/11/27 06:02:05;;;;;;;1.50;1.17;;;;;;;3.25;71.34;94435.34;5049162;28;20201;-86
2023/11/27 06:04:31;;;;;;;1.40;1.20;;;;;;;3.18;71.24;94439.47;5049188;28;20698;-85
2023/11/27 06:06:59;;;;;;;1.23;1.13;;;;;;;3.13;71.50;94448.38;5049664;28;20572;-85
2023/11/27 06:09:26;;;;;;;2.07;1.10;;;;;;;3.20;71.78;94460.47;5049170;28;20225;-87
2023/11/27 06:11:53;;;;;;;1.20;1.10;;;;;;;3.23;71.84;94458.41;5049053;28;20240;-85
2023/11/27 06:14:19;;;;;;;1.47;1.30;;;;;;;3.14;71.46;94444.09;5047908;28;20300;-86
2023/11/27 06:16:45;;;;;;;1.47;1.37;;;;;;;3.11;71.61;94436.78;5049184;28;20204;-86
2023/11/27 06:19:13;;;;;;;1.40;1.30;;;;;;;3.12;72.20;94446.78;5048785;28;20742;-86
2023/11/27 06:21:39;;;;;;;1.90;1.10;;;;;;;3.17;71.69;94448.84;5048933;28;20202;-85
2023/11/27 06:24:08;;;;;;;1.37;1.27;;;;;;;3.25;71.77;94448.06;5049093;28;20209;-85
2023/11/27 06:26:36;;;;;;;1.73;1.20;;;;;;;3.27;71.63;94434.22;5049004;28;20278;-86
2023/11/27 06:29:02;;;;;;;1.30;1.10;;;;;;;3.32;71.30;94429.44;5049946;28;20330;-85
2023/11/27 06:31:29;;;;;;;1.30;1.20;;;;;;;3.34;71.37;94426.75;5051042;28;20201;-86
2023/11/27 06:33:55;;;;;;;2.10;1.20;;;;;;;3.37;71.34;94429.78;5051008;28;20201;-86
2023/11/27 06:36:22;;;;;;;2.03;1.30;;;;;;;3.38;71.35;94423.72;5050355;28;20190;-87
2023/11/27 06:38:49;;;;;;;1.60;1.30;;;;;;;3.44;71.12;94422.31;5051205;28;20221;-87
2023/11/27 06:41:16;;;;;;;2.20;1.40;;;;;;;3.47;71.16;94416.88;5051031;28;20205;-86
2023/11/27 06:43:43;;;;;;;2.00;1.40;;;;;;;3.44;71.46;94404.50;5051644;28;20661;-86
2023/11/27 06:46:11;;;;;;;1.20;1.13;;;;;;;3.42;71.90;94434.38;5048886;28;20234;-86
2023/11/27 06:48:38;;;;;;;1.77;1.53;;;;;;;3.38;72.10;94436.44;5051144;28;20263;-87
2023/11/27 06:51:04;;;;;;;1.33;1.23;;;;;;;3.41;71.76;94438.69;5048219;28;20201;-87
2023/11/27 06:53:31;;;;;;;3.80;1.33;;;;;;;3.48;71.63;94438.81;5047110;28;20197;-86
2023/11/27 06:55:57;;;;;;;1.40;1.30;;;;;;;3.53;71.60;94405.25;5050344;28;20205;-85
2023/11/27 06:58:25;;;;;;;1.73;1.30;;;;;;;3.46;70.93;94377.91;5051351;28;20221;-86
2023/11/27 07:00:51;;;;;;;1.50;1.33;;;;;;;3.40;70.66;94363.31;5052204;28;20243;-87
2023/11/27 07:03:18;;;;;;;1.27;1.17;;;;;;;3.39;70.75;94371.09;5052826;28;20213;-85
2023/11/27 07:05:44;;;;;;;1.27;1.17;;;;;;;3.43;70.56;94369.84;5051010;28;20228;-86
2023/11/27 07:08:11;;;;;;;1.40;1.30;;;;;;;3.47;70.21;94360.91;5050706;28;20315;-85
2023/11/27 07:10:37;;;;;;;1.40;1.30;;;;;;;3.57;73.94;94514.19;5052043;28;20288;-87
2023/11/27 07:13:04;;;;;;;1.73;1.50;;;;;;;3.63;71.36;94411.75;5048871;28;20198;-86
2023/11/27 07:15:49;;;;;;;2.10;1.50;;;;;;;3.65;71.53;94394.59;5048907;28;20213;-87
2023/11/27 07:18:16;;;;;;;1.50;1.40;;;;;;;3.71;71.38;94391.38;5047682;28;20224;-86
2023/11/27 07:20:45;;;;;;;4.00;2.33;;;;;;;3.73;71.24;94389.44;5048834;28;20210;-86
2023/11/27 07:23:12;;;;;;;4.10;1.80;;;;;;;3.74;71.40;94395.34;5048900;28;20630;-87
2023/11/27 07:25:39;;;;;;;2.90;2.40;;;;;;;3.75;71.30;94391.84;5049355;28;20308;-87
2023/11/27 07:28:06;;;;;;;2.23;1.93;;;;;;;3.80;71.35;94382.75;5049427;28;20309;-87
2023/11/27 07:30:32;;;;;;;2.03;1.80;;;;;;;3.83;70.64;94357.94;5048971;28;20213;-86
2023/11/27 07:33:02;;;;;;;1.80;1.70;;;;;;;3.81;70.45;94338.53;5047982;28;20202;-86
2023/11/27 07:35:30;;;;;;;1.87;1.63;;;;;;;3.87;70.75;94354.06;5048277;28;20201;-86
2023/11/27 07:38:02;;;;;;;2.30;1.80;;;;;;;3.93;70.84;94358.50;5056695;28;20738;-87
2023/11/27 07:40:36;;;;;;;2.00;1.70;;;;;;;3.98;70.55;94351.19;5047914;28;20213;-85
2023/11/27 07:43:04;;;;;;;1.50;1.40;;;;;;;4.00;69.48;94296.59;5048480;28;20205;-87
2023/11/27 07:45:31;;;;;;;1.77;1.50;;;;;;;4.03;69.58;94280.97;5048226;28;20316;-86
2023/11/27 07:47:57;;;;;;;1.63;1.53;;;;;;;4.07;69.10;94273.78;5046149;28;20228;-86
2023/11/27 07:50:26;;;;;;;2.50;1.77;;;;;;;4.13;69.40;94290.94;5045033;28;20205;-85
2023/11/27 07:52:52;;;;;;;1.60;1.50;;;;;;;4.14;68.77;94265.28;5052076;28;20294;-86
2023/11/27 07:55:19;;;;;;;1.50;1.40;;;;;;;4.18;69.27;94277.69;5051186;28;20204;-87
2023/11/27 07:57:45;;;;;;;2.30;1.60;;;;;;;4.10;69.22;94279.31;5051858;28;20236;-87
2023/11/27 08:00:14;;;;;;;10.40;6.77;;;;;;;4.22;69.56;94296.78;5052011;28;20205;-85
2023/11/27 08:02:42;;;;;;;7.93;5.63;;;;;;;4.25;71.20;94371.09;5052218;28;20810;-86
2023/11/27 08:05:11;;;;;;;4.53;2.80;;;;;;;4.38;70.96;94379.00;5053859;28;20209;-87
2023/11/27 08:07:39;;;;;;;3.10;1.97;;;;;;;4.55;69.90;94327.91;5053589;28;20743;-86
2023/11/27 08:10:09;;;;;;;2.00;1.50;;;;;;;4.65;68.73;94274.94;5054497;28;20201;-86
2023/11/27 08:12:39;;;;;;;2.70;1.60;;;;;;;4.72;67.96;94235.84;5054671;28;20205;-86
2023/11/27 08:15:08;;;;;;;2.20;1.60;;;;;;;4.77;67.40;94200.44;5053451;28;20204;-86
2023/11/27 08:17:34;;;;;;;1.73;1.60;;;;;;;4.93;67.25;94194.38;5053738;28;20221;-86
2023/11/27 08:20:04;;;;;;;1.60;1.40;;;;;;;5.12;67.02;94187.94;5053120;28;20193;-85
2023/11/27 08:22:30;;;;;;;2.47;1.50;;;;;;;5.27;66.51;94172.59;5050826;28;20673;-85
2023/11/27 08:25:00;;;;;;;1.90;1.70;;;;;;;5.43;65.68;94141.78;5052182;28;20228;-85
2023/11/27 08:27:26;;;;;;;1.70;1.60;;;;;;;5.49;65.18;94113.78;5051630;28;20214;-85
2023/11/27 08:29:53;;;;;;;3.00;2.00;;;;;;;5.53;64.47;94060.59;5052595;28;20295;-86
2023/11/27 08:32:20;;;;;;;2.07;1.60;;;;;;;5.62;64.55;94058.69;5052024;28;20209;-86
2023/11/27 08:34:46;;;;;;;8.23;6.37;;;;;;;5.69;64.84;94082.53;5052577;28;20253;-86
2023/11/27 08:37:16;;;;;;;3.07;2.73;;;;;;;5.78;64.13;94040.56;5051107;28;20212;-85
2023/11/27 08:39:44;;;;;;;2.47;2.20;;;;;;;5.74;64.20;94040.16;5046643;28;20208;-85
2023/11/27 08:42:12;;;;;;;2.87;1.90;;;;;;;5.71;63.68;94001.44;5067204;28;20224;-86
2023/11/27 08:44:40;;;;;;;3.27;1.60;;;;;;;5.54;63.39;93975.41;5045164;28;20205;-87
2023/11/27 08:47:09;;;;;;;1.37;1.20;;;;;;;5.41;63.17;93950.56;5051709;28;20221;-86
2023/11/27 08:49:35;;;;;;;1.57;1.30;;;;;;;5.34;63.42;93974.47;5051470;28;20664;-86
2023/11/27 08:52:04;;;;;;;4.30;1.20;;;;;;;5.40;63.85;93989.00;5051195;28;20193;-86
2023/11/27 08:54:36;;;;;;;1.40;1.30;;;;;;;5.55;63.58;94000.75;5050540;28;20236;-87
2023/11/27 08:57:07;;;;;;;3.13;1.30;;;;;;;5.72;63.77;94019.13;5050714;28;20205;-86
2023/11/27 08:59:35;;;;;;;1.70;1.30;;;;;;;5.85;63.87;94011.56;5051797;28;20749;-87
2023/11/27 09:02:02;;;;;;;4.67;1.50;;;;;;;5.87;63.19;93973.06;5051472;28;20198;-87
2023/11/27 09:04:34;;;;;;;2.10;1.33;;;;;;;5.87;62.25;93917.69;5053346;28;20284;-87
2023/11/27 09:07:06;;;;;;;1.37;1.20;;;;;;;5.88;61.46;93875.03;5051137;28;20607;-87
2023/11/27 09:09:33;;;;;;;2.30;1.20;;;;;;;5.98;62.30;93902.81;5032534;28;20657;-87
2023/11/27 09:12:02;;;;;;;5.53;2.40;;;;;;;6.16;61.70;93900.53;5044267;28;20229;-86
2023/11/27 09:14:42;;;;;;;2.23;1.60;;;;;;;6.31;61.33;93865.41;5052094;28;20202;-86
2023/11/27 09:17:10;;;;;;;1.17;1.07;;;;;;;6.36;60.26;93800.94;5051264;28;20197;-86
2023/11/27 09:19:40;;;;;;;2.23;1.27;;;;;;;6.48;59.94;93779.72;5051836;28;20197;-87
2023/11/27 09:22:06;;;;;;;1.20;1.10;;;;;;;6.49;59.13;93742.19;5050794;28;20288;-86
2023/11/27 09:24:33;;;;;;;1.53;1.00;;;;;;;6.61;58.92;93730.38;5050725;28;20590;-85
2023/11/27 09:27:10;;;;;;;1.73;1.00;;;;;;;6.93;59.02;93751.75;5049591;28;20233;-87
2023/11/27 09:29:36;;;;;;;1.30;1.20;;;;;;;6.92;58.22;93670.94;5050110;28;20691;-86
2023/11/27 09:32:10;;;;;;;1.30;1.20;;;;;;;6.81;57.67;93630.59;5050694;28;20208;-86
2023/11/27 09:34:55;;;;;;;1.10;1.00;;;;;;;6.71;57.77;93635.38;5050315;28;20217;-86
2023/11/27 09:37:29;;;;;;;1.63;1.10;;;;;;;6.64;57.88;93643.03;5050278;28;20206;-86
2023/11/27 09:40:05;;;;;;;1.23;0.97;;;;;;;6.65;58.05;93648.94;5047868;28;20758;-87
2023/11/27 09:42:37;;;;;;;1.77;1.30;;;;;;;6.58;57.98;93644.63;5045943;28;20193;-86
2023/11/27 09:45:10;;;;;;;4.40;1.30;;;;;;;6.55;58.21;93639.13;5051316;28;20212;-87
2023/11/27 09:47:38;;;;;;;1.73;1.10;;;;;;;6.58;58.03;93648.94;5049916;28;20315;-86
2023/11/27 09:50:16;;;;;;;1.10;1.00;;;;;;;6.65;58.06;93634.38;5050192;28;20319;-87
2023/11/27 09:52:53;;;;;;;1.33;1.10;;;;;;;6.78;58.23;93661.69;5051432;28;20742;-86
2023/11/27 09:55:28;;;;;;;1.93;1.20;;;;;;;6.95;58.21;93673.06;5050653;28;20219;-86
2023/11/27 09:57:55;;;;;;;1.33;0.90;;;;;;;7.09;58.43;93666.16;5049323;28;20221;-86
2023/11/27 10:00:34;;;;;;;;;;;;;;;;;;;;;
2023/11/27 10:03:05;;;;;;;1.20;0.83;;;;;;;6.96;56.89;93563.84;5051883;28;20276;-85
2023/11/27 10:05:37;;;;;;;1.33;0.93;;;;;;;6.86;56.99;93554.06;5049757;28;20239;-86
2023/11/27 10:08:04;;;;;;;1.00;0.90;;;;;;;6.90;57.53;93580.81;5049901;28;20636;-86
2023/11/27 10:10:33;;;;;;;0.93;0.93;;;;;;;6.88;57.80;93578.47;5049813;28;20268;-86
2023/11/27 10:13:04;;;;;;;2.30;1.00;;;;;;;6.99;57.34;93543.75;5049670;28;20212;-87
2023/11/27 10:15:34;;;;;;;1.80;1.10;;;;;;;6.97;56.91;93540.63;5049937;28;20251;-86
2023/11/27 10:18:00;;;;;;;3.67;1.10;;;;;;;6.95;57.01;93529.81;5050328;28;20305;-87
2023/11/27 10:20:29;;;;;;;1.10;1.00;;;;;;;6.92;57.08;93512.34;5050775;28;20202;-86
2023/11/27 10:23:01;;;;;;;1.83;1.03;;;;;;;6.92;57.69;93551.50;5050302;28;20665;-86
2023/11/27 10:25:36;;;;;;;1.37;1.23;;;;;;;6.92;57.69;93566.06;5051718;28;20205;-86
2023/11/27 10:28:10;;;;;;;1.93;1.40;;;;;;;6.81;57.43;93541.88;5051643;28;20286;-87
2023/11/27 10:30:40;;;;;;;1.20;1.10;;;;;;;6.54;57.72;93538.63;5049323;28;20202;-86
2023/11/27 10:33:10;;;;;;;1.10;1.00;;;;;;;6.52;58.07;93575.63;5050021;28;20276;-87
2023/11/27 10:35:37;;;;;;;1.30;1.20;;;;;;;6.55;58.66;93598.22;5051340;28;20213;-86
2023/11/27 10:38:05;;;;;;;3.13;1.30;;;;;;;6.52;58.61;93585.84;5041111;28;20218;-86
2023/11/27 10:40:41;;;;;;;0.90;0.90;;;;;;;6.33;58.23;93533.81;5051189;28;20224;-87
2023/11/27 10:43:13;;;;;;;2.70;1.00;;;;;;;6.41;58.80;93551.47;5052438;28;20223;-85
2023/11/27 10:45:41;;;;;;;3.70;1.07;;;;;;;6.52;58.53;93527.84;5050062;28;20221;-86
2023/11/27 10:48:14;;;;;;;2.67;1.13;;;;;;;6.58;58.71;93529.56;5049099;28;20236;-87
2023/11/27 10:50:45;;;;;;;2.77;1.10;;;;;;;6.62;59.07;93542.75;5048713;28;20745;-87
2023/11/27 10:53:26;;;;;;;1.20;1.10;;;;;;;6.64;59.01;93573.22;5051374;28;20582;-86
2023/11/27 10:55:56;;;;;;;2.30;1.30;;;;;;;6.66;59.28;93579.72;5050707;28;20201;-86
2023/11/27 10:58:23;;;;;;;2.23;1.20;;;;;;;6.55;59.14;93570.09;5049497;28;20221;-87
2023/11/27 11:00:56;;;;;;;1.53;1.10;;;;;;;6.50;59.45;93562.25;5050499;28;20610;-86
2023/11/27 11:03:24;;;;;;;1.40;1.17;;;;;;;6.32;59.45;93560.34;5049578;28;20665;-87
2023/11/27 11:05:53;;;;;;;1.40;1.30;;;;;;;6.35;59.93;93571.94;5043165;28;20202;-87
2023/11/27 11:08:26;;;;;;;1.40;1.30;;;;;;;6.43;60.10;93592.16;5049931;28;20249;-86
2023/11/27 11:10:55;;;;;;;2.00;1.37;;;;;;;6.45;59.83;93564.63;5051305;28;20205;-87
2023/11/27 11:13:24;;;;;;;1.87;1.30;;;;;;;6.52;60.00;93560.28;5043780;28;20202;-85
2023/11/27 11:15:56;;;;;;;1.40;1.20;;;;;;;6.36;59.01;93491.72;5031654;28;20546;-87
2023/11/27 11:18:35;;;;;;;1.20;1.10;;;;;;;6.40;59.14;93496.22;5032035;28;20229;-86
2023/11/27 11:21:50;;;;;;;4.87;2.20;;;;;;;6.69;71.79;94128.28;5043729;28;20213;-88
2023/11/27 11:24:47;;;;;;;3.43;1.70;;;;;;;7.15;78.23;94323.00;5030324;28;20241;-88
2023/11/27 11:28:05;;;;;;;10.27;2.10;;;;;;;7.47;69.20;94051.03;5032353;28;20308;-88
2023/11/27 11:30:32;;;;;;;2.50;1.43;;;;;;;7.50;63.57;93753.63;5034662;28;20707;-85
2023/11/27 11:32:58;;;;;;;6.33;1.67;;;;;;;7.50;61.31;93582.09;5043937;28;20198;-87
2023/11/27 11:35:28;;;;;;;1.50;1.10;;;;;;;7.11;59.42;93450.03;5052139;28;20197;-86
2023/11/27 11:37:54;;;;;;;1.47;1.10;;;;;;;7.06;59.68;93439.63;5053786;28;20217;-84
2023/11/27 11:40:40;;;;;;;1.33;1.20;;;;;;;6.89;58.23;93370.31;5053688;28;20577;-86
2023/11/27 11:43:07;;;;;;;3.60;1.30;;;;;;;6.88;58.08;93344.94;5053139;28;20212;-85
2023/11/27 11:45:34;;;;;;;2.63;1.20;;;;;;;6.85;58.37;93347.91;5052961;28;20209;-86
2023/11/27 11:48:07;;;;;;;3.50;1.23;;;;;;;6.74;58.49;93349.34;5053833;28;20235;-86
2023/11/27 11:50:40;;;;;;;1.40;1.10;;;;;;;6.78;58.37;93359.94;5053211;28;20233;-86
2023/11/27 11:53:42;;;;;;;1.90;1.37;;;;;;;6.77;58.00;93366.81;5052267;28;20206;-86
2023/11/27 11:56:27;;;;;;;1.73;1.13;;;;;;;6.78;58.29;93362.50;5052553;28;20205;-86
2023/11/27 11:59:09;;;;;;;1.30;1.20;;;;;;;6.74;58.22;93351.13;5052226;28;20218;-86
2023/11/27 12:01:44;;;;;;;1.90;1.40;;;;;;;6.71;58.08;93354.09;5053586;28;20201;-86
2023/11/27 12:04:12;;;;;;;1.83;1.30;;;;;;;6.72;57.84;93342.91;5053577;28;20247;-87
2023/11/27 12:06:45;;;;;;;1.33;1.17;;;;;;;6.71;58.22;93331.09;5052426;28;20311;-86
2023/11/27 12:09:27;;;;;;;1.67;1.30;;;;;;;6.65;58.87;93370.28;5051225;28;20237;-86
2023/11/27 12:11:58;;;;;;;1.60;1.10;;;;;;;6.63;58.52;93341.56;5053003;28;20200;-86
2023/11/27 12:14:38;;;;;;;1.63;1.17;;;;;;;6.64;58.36;93340.56;5052047;28;20209;-87